TNCB/BON METAR and TAF weather

Enter ICAO airport designator
Station Type Date Time Source
TNCB METAR 2019/10/15 03:55 UTC NOAA

TNCB 150355Z AUTO 10008KT 070V130 9999 SCT018/// SCT023/// 28/24 Q1013


Station Type Date Time Source
TNCB Decoded METAR 2019/10/15 03:55 UTC NOAA

Flamingo Airport, Bonaire, Netherlands Antilles (TNCB) 12-09N 068-17W 7M
Oct 14, 2019 - 11:55 PM EDT / 2019.10.15 0355 UTC
Wind: from the E (100 degrees) at 9 MPH (8 KT) (direction variable):0
Visibility: greater than 7 mile(s):0
Sky conditions: partly cloudy
Temperature: 82 F (28 C)
Dew Point: 75 F (24 C)
Relative Humidity: 78%
Pressure (altimeter): 29.91 in. Hg (1013 hPa)
ob: TNCB 150355Z AUTO 10008KT 070V130 9999 SCT018/// SCT023/// 28/24 Q1013
cycle: 4

Station Type Date Time Source
TNCB TAF 2019/10/14 18:27 UTC NOAA

TAF TAF TNCB 141647Z 1418/1524 10012KT 9999 SCT025 PROB30
TEMPO 1512/1518 5000 SHRA TSRA SCT020CB

Example: see airport list